UUEE

Sheremetyevo International Airport

Code ICAO UUEE
Code IATA SVO
Nom Sheremetyevo International Airport
Emplacement Moscow, Moscow-Oblast, RU
Élévation 622 pieds / 189.6 mètres
Latitude 55.97259903
Longitude 37.41460037
METAR UUEE 260530Z 22006MPS CAVOK M00/M02 Q1021 R24L/290045 R24C/290045 R24R/290051 NOSIG
Informations extras Afficher cartes et CFS
Afficher NOTAMS
Piste Longueur Largeur Surface Élévation
06C 11647 ft 197 ft CON 620 ft
06L 10498 ft 197 ft paved 597 ft
06R 12139 ft 197 ft CON 617 ft
24C 11647 ft 197 ft CON 622 ft
24R 10498 ft 197 ft paved 587 ft
24L 12139 ft 197 ft CON 620 ft